Jamestown, CA

5:07 AM PST on November 26, 2014 (GMT -0800)
Castle | Change Station
CLOSE
Current Station
Airport
Location: Atwater,
Elevation: 187 ft
Nearby Weather Stations
Active Advisory: Special Statement

Elev 187 ft 37.38 °N, 120.57 °W | Updated 12 minutes ago

Clear
Clear
37 °F
Feels Like 37 °F
N
0
Wind Variable Wind from North

Today
High -- | Low -- °F
--% Chance of Precip.
Yesterday
High -- | Low -- °F
Precip. -- in
6:53 AM 4:44 PM
Waxing Crescent, 19% visible
Pressure 30.34 in
Visibility 3.0 miles
Clouds Clear
Dew Point 37 °F
Humidity 100%
Rainfall 0.00 in
Snow Depth Not available.
UV 0 out of 12
Pollen 1.40 out of 12
Air Quality Not available.
Flu Activity Not available.
METAR KMER 261255Z AUTO 00000KT 3SM CLR 03/03 A3034 RMK AO1

More Conditions Fewer Conditions

Pressure 30.34 in
Visibility 3.0 miles
Clouds Clear
Dew Point 37 °F
Humidity 100%
Rainfall 0.00 in
Snow Depth Not available.
UV 0 out of 12
Pollen 1.40 out of 12
Air Quality Not available.
Flu Activity Not available.
METAR KMER 261255Z AUTO 00000KT 3SM CLR 03/03 A3034 RMK AO1

More Conditions Fewer Conditions

10-Day Weather Forecast

Almanac

Astronomy

Nov. 26, 2014 Rise Set
Actual Time
Civil Twilight
Nautical Twilight
Astronomical Twilight
Moon
Length of Visible Light
Length of Day
Tomorrow will be .
, % of the Moon is Illuminated

Today's Extremes

State Highs State Lows

Community

WunderPhotos

Upload Photos

1,773,720 photos uploaded!

WunderBlogs® & News

Nearby

Air Quality

  Air Quality AQ Index Pollutant
Not available.

Snow Depth

Station Depth Elevation

Earthquake Activity

City Distance Mag. Time & Date
Minimum magnitude displayed is 2.5.

Coastal Water Temperatures

Place Temperature

Nearby Weather Stations